createdAt,value
2023-05-10T00:00:26.591Z,98365.09
2023-05-10T00:03:12.097Z,98367.09
2023-05-10T00:05:57.975Z,98362.31
2023-05-10T00:08:43.166Z,98360.75
2023-05-10T00:11:28.444Z,98356.00
2023-05-10T00:14:13.671Z,98356.00
2023-05-10T00:16:59.138Z,98348.44
2023-05-10T00:19:44.801Z,98349.63
2023-05-10T00:22:30.070Z,98350.44
2023-05-10T00:25:15.364Z,98345.66
2023-05-10T00:28:02.332Z,98340.97
2023-05-10T00:30:47.725Z,98336.22
2023-05-10T00:33:33.068Z,98340.97
2023-05-10T00:36:18.214Z,98344.88
2023-05-10T00:39:04.662Z,98339.34
2023-05-10T00:41:49.998Z,98333.78
2023-05-10T00:44:36.381Z,98328.66
2023-05-10T00:47:21.812Z,98327.44
2023-05-10T00:50:08.787Z,98321.88
2023-05-10T00:52:54.185Z,98317.56
2023-05-10T00:55:39.585Z,98314.78
2023-05-10T00:58:28.949Z,98314.78
2023-05-10T01:01:14.736Z,98316.31
2023-05-10T01:04:00.354Z,98319.09
2023-05-10T01:06:45.844Z,98314.00
2023-05-10T01:09:31.749Z,98309.22
2023-05-10T01:12:17.020Z,98321.09
2023-05-10T01:15:03.344Z,98314.78
2023-05-10T01:17:49.992Z,98313.56
2023-05-10T01:20:44.374Z,98311.22
2023-05-10T01:23:47.819Z,98307.22
2023-05-10T01:27:10.908Z,98302.91
2023-05-10T01:30:14.808Z,98296.56
2023-05-10T01:33:34.180Z,98298.56
2023-05-10T01:36:28.790Z,98294.25
2023-05-10T01:39:31.489Z,98299.78
2023-05-10T01:42:26.911Z,98286.34
2023-05-10T01:45:28.444Z,98299.03
2023-05-10T01:48:15.888Z,98298.22
2023-05-10T01:51:01.684Z,98297.44
2023-05-10T01:53:48.970Z,98304.56
2023-05-10T01:56:36.472Z,98303.78
2023-05-10T01:59:23.269Z,98297.44
2023-05-10T02:02:12.870Z,98299.03
2023-05-10T02:04:59.333Z,98301.78
2023-05-10T02:07:46.525Z,98295.44
2023-05-10T02:10:33.336Z,98293.91
2023-05-10T02:13:20.022Z,98301.47
2023-05-10T02:16:06.606Z,98307.00
2023-05-10T02:18:53.862Z,98293.91
2023-05-10T02:21:41.054Z,98293.13
2023-05-10T02:24:27.949Z,98295.91
2023-05-10T02:27:15.206Z,98290.34
2023-05-10T02:30:02.448Z,98284.00
2023-05-10T02:32:49.279Z,98282.47
2023-05-10T02:35:36.087Z,98284.00
2023-05-10T02:38:23.797Z,98288.78
2023-05-10T02:41:12.249Z,98286.44
2023-05-10T02:44:02.286Z,98282.47
2023-05-10T02:46:48.065Z,98288.00
2023-05-10T02:49:33.386Z,98284.47
2023-05-10T02:55:11.764Z,98284.13
2023-05-10T02:58:01.181Z,98282.13
2023-05-10T03:00:47.400Z,98287.34
2023-05-10T03:03:33.074Z,98281.34
2023-05-10T03:06:18.650Z,98290.88
2023-05-10T03:09:04.529Z,98279.78
2023-05-10T03:12:05.227Z,98281.03
2023-05-10T03:15:10.288Z,98279.78
2023-05-10T03:18:05.821Z,98278.69
2023-05-10T03:20:57.042Z,98275.47
2023-05-10T03:23:45.780Z,98267.56
2023-05-10T03:26:32.715Z,98271.13
2023-05-10T03:32:15.704Z,98282.47
2023-05-10T03:35:02.494Z,98288.00
2023-05-10T03:37:48.475Z,98280.78
2023-05-10T03:40:34.156Z,98288.69
2023-05-10T03:43:19.439Z,98298.91
2023-05-10T03:46:06.056Z,98287.34
2023-05-10T03:48:52.801Z,98289.22
2023-05-10T03:51:38.207Z,98292.34
2023-05-10T03:54:23.636Z,98289.91
2023-05-10T03:57:09.231Z,98296.56
2023-05-10T03:59:55.080Z,98291.78
2023-05-10T04:02:40.523Z,98292.91
2023-05-10T04:05:28.676Z,98294.03
2023-05-10T04:08:13.932Z,98293.13
2023-05-10T04:11:13.761Z,98289.44
2023-05-10T04:13:59.414Z,98286.22
2023-05-10T04:16:44.840Z,98289.34
2023-05-10T04:19:31.300Z,98288.44
2023-05-10T04:22:17.003Z,98276.56
2023-05-10T04:25:03.296Z,98287.56
2023-05-10T04:27:48.585Z,98280.34
2023-05-10T04:30:34.018Z,98275.88
2023-05-10T04:33:19.288Z,98279.00
2023-05-10T04:36:05.163Z,98271.44
2023-05-10T04:38:50.588Z,98281.66
2023-05-10T04:41:35.932Z,98280.88
2023-05-10T04:44:21.199Z,98285.56
2023-05-10T04:47:06.445Z,98268.41
2023-05-10T04:49:51.663Z,98269.97
2023-05-10T04:52:37.540Z,98270.31
2023-05-10T04:55:23.117Z,98266.31
2023-05-10T04:58:08.880Z,98262.31
2023-05-10T05:00:54.149Z,98272.19
2023-05-10T05:03:41.081Z,98270.97
2023-05-10T05:06:28.241Z,98275.75
2023-05-10T05:09:13.549Z,98272.97
2023-05-10T05:11:59.962Z,98264.19
2023-05-10T05:14:45.409Z,98278.06
2023-05-10T05:17:34.010Z,98279.66
2023-05-10T05:20:20.041Z,98276.88
2023-05-10T05:23:05.086Z,98278.44
2023-05-10T05:25:50.335Z,98276.09
2023-05-10T05:28:38.270Z,98272.53
2023-05-10T05:31:23.757Z,98280.84
2023-05-10T05:34:09.373Z,98279.31
2023-05-10T05:36:55.096Z,98269.41
2023-05-10T05:39:40.709Z,98270.19
2023-05-10T05:42:26.718Z,98283.63
2023-05-10T05:45:14.541Z,98282.88
2023-05-10T05:48:00.465Z,98282.88
2023-05-10T05:50:46.650Z,98284.97
2023-05-10T05:53:32.263Z,98281.44
2023-05-10T05:56:18.571Z,98273.97
2023-05-10T05:59:04.905Z,98271.19
2023-05-10T06:01:50.451Z,98276.13
2023-05-10T06:04:35.958Z,98278.56
2023-05-10T06:07:21.332Z,98281.00
2023-05-10T06:10:07.317Z,98283.44
2023-05-10T06:12:53.877Z,98280.34
2023-05-10T06:15:39.781Z,98285.88
2023-05-10T06:18:25.514Z,98288.34
2023-05-10T06:21:11.182Z,98288.00
2023-05-10T06:23:56.417Z,98286.00
2023-05-10T06:26:41.764Z,98284.47
2023-05-10T06:29:27.369Z,98289.25
2023-05-10T06:32:12.977Z,98292.47
2023-05-10T06:34:58.512Z,98291.69
2023-05-10T06:37:43.991Z,98288.91
2023-05-10T06:40:29.583Z,98290.88
2023-05-10T06:43:14.754Z,98292.47
2023-05-10T06:46:00.072Z,98290.88
2023-05-10T06:48:45.813Z,98293.34
2023-05-10T06:51:30.931Z,98294.13
2023-05-10T06:54:16.255Z,98287.81
2023-05-10T06:57:03.591Z,98287.00
2023-05-10T06:59:49.226Z,98296.91
2023-05-10T07:02:34.714Z,98300.88
2023-05-10T07:05:21.001Z,98303.66
2023-05-10T07:08:06.906Z,98305.22
2023-05-10T07:10:52.194Z,98287.81
2023-05-10T07:13:39.027Z,98291.34
2023-05-10T07:16:24.594Z,98298.13
2023-05-10T07:19:10.092Z,98300.13
2023-05-10T07:21:56.141Z,98301.69
2023-05-10T07:24:41.529Z,98296.91
2023-05-10T07:27:26.906Z,98301.22
2023-05-10T07:30:13.043Z,98298.44
2023-05-10T07:32:58.473Z,98298.44
2023-05-10T07:35:44.447Z,98303.22
2023-05-10T07:38:30.159Z,98301.22
2023-05-10T07:41:15.385Z,98302.00
2023-05-10T07:44:00.741Z,98305.56
2023-05-10T07:46:46.077Z,98295.66
2023-05-10T07:49:31.501Z,98306.34
2023-05-10T07:52:16.779Z,98303.56
2023-05-10T07:55:01.987Z,98301.56
2023-05-10T07:57:47.459Z,98287.66
2023-05-10T08:00:32.641Z,98298.00
2023-05-10T08:03:18.212Z,98291.69
2023-05-10T08:06:04.400Z,98294.78
2023-05-10T08:08:51.382Z,98292.00
2023-05-10T08:11:36.978Z,98292.78
2023-05-10T08:14:22.162Z,98299.13
2023-05-10T08:17:07.576Z,98298.34
2023-05-10T08:19:52.849Z,98299.13
2023-05-10T08:22:38.340Z,98298.34
2023-05-10T08:25:23.849Z,98300.34
2023-05-10T08:28:09.987Z,98302.31
2023-05-10T08:30:56.887Z,98313.00
2023-05-10T08:33:44.429Z,98309.44
2023-05-10T08:36:30.083Z,98311.00
2023-05-10T08:39:26.763Z,98307.44
2023-05-10T08:42:20.582Z,98313.78
2023-05-10T08:45:08.174Z,98318.56
2023-05-10T08:47:54.179Z,98321.00
2023-05-10T08:50:42.117Z,98317.78
2023-05-10T08:53:29.878Z,98324.53
2023-05-10T08:56:16.678Z,98318.22
2023-05-10T08:59:02.700Z,98317.78
2023-05-10T09:01:50.358Z,98320.56
2023-05-10T09:04:36.276Z,98322.56
2023-05-10T09:07:21.393Z,98333.69
2023-05-10T09:10:07.648Z,98332.88
2023-05-10T09:12:54.332Z,98337.66
2023-05-10T09:15:40.017Z,98335.66
2023-05-10T09:18:27.256Z,98338.44
2023-05-10T09:21:14.746Z,98344.00
2023-05-10T09:24:04.305Z,98336.13
2023-05-10T09:26:49.959Z,98343.22
2023-05-10T09:29:44.690Z,98344.47
2023-05-10T09:32:43.776Z,98341.69
2023-05-10T09:35:31.512Z,98336.13
2023-05-10T09:38:17.282Z,98349.22
2023-05-10T09:41:03.649Z,98356.00
2023-05-10T09:43:50.258Z,98348.44
2023-05-10T09:46:39.014Z,98351.69
2023-05-10T09:49:24.750Z,98352.44
2023-05-10T09:52:10.019Z,98342.53
2023-05-10T09:54:56.101Z,98358.00
2023-05-10T09:57:41.917Z,98346.91
2023-05-10T10:00:28.265Z,98344.13
2023-05-10T10:03:16.279Z,98341.78
2023-05-10T10:06:01.892Z,98344.56
2023-05-10T10:08:47.455Z,98352.13
2023-05-10T10:11:35.331Z,98343.78
2023-05-10T10:14:22.267Z,98343.78
2023-05-10T10:17:09.077Z,98341.00
2023-05-10T10:19:55.993Z,98353.66
2023-05-10T10:22:41.266Z,98341.78
2023-05-10T10:25:26.820Z,98335.44
2023-05-10T10:28:26.160Z,98339.44
2023-05-10T10:31:25.554Z,98345.00
2023-05-10T10:34:20.028Z,98340.66
2023-05-10T10:37:07.520Z,98338.66
2023-05-10T10:39:53.075Z,98338.66
2023-05-10T10:42:48.323Z,98341.88
2023-05-10T10:45:33.946Z,98345.47
2023-05-10T10:48:26.212Z,98345.47
2023-05-10T10:51:12.926Z,98345.47
2023-05-10T10:54:10.525Z,98344.34
2023-05-10T10:57:15.187Z,98344.34
2023-05-10T11:00:23.316Z,98344.66
2023-05-10T11:03:15.753Z,98337.56
2023-05-10T11:06:02.801Z,98340.00
2023-05-10T11:08:48.790Z,98343.53
2023-05-10T11:11:35.566Z,98341.56
2023-05-10T11:14:23.381Z,98342.34
2023-05-10T11:17:28.119Z,98350.66
2023-05-10T11:20:16.006Z,98357.78
2023-05-10T11:23:22.383Z,98340.34
2023-05-10T11:26:12.041Z,98349.00
2023-05-10T11:28:57.861Z,98354.56
2023-05-10T11:31:47.940Z,98356.09
2023-05-10T11:34:36.235Z,98355.31
2023-05-10T11:37:21.848Z,98357.34
2023-05-10T11:40:07.510Z,98352.56
2023-05-10T11:42:52.884Z,98351.34
2023-05-10T11:45:38.526Z,98353.66
2023-05-10T11:48:24.954Z,98351.69
2023-05-10T11:51:11.899Z,98356.44
2023-05-10T11:53:58.506Z,98362.31
2023-05-10T11:56:43.766Z,98364.34
2023-05-10T11:59:29.010Z,98370.66
2023-05-10T12:02:17.266Z,98367.44
2023-05-10T12:05:05.828Z,98369.88
2023-05-10T12:07:51.432Z,98369.47
2023-05-10T12:10:36.768Z,98380.56
2023-05-10T12:13:22.475Z,98375.78
2023-05-10T12:16:19.048Z,98371.78
2023-05-10T12:19:04.773Z,98382.09
2023-05-10T12:21:50.987Z,98385.22
2023-05-10T12:24:39.020Z,98385.22
2023-05-10T12:27:24.198Z,98394.31
2023-05-10T12:30:10.119Z,98396.34
2023-05-10T12:33:01.378Z,98405.00
2023-05-10T12:35:49.530Z,98392.66
2023-05-10T12:38:49.037Z,98403.78
2023-05-10T12:41:34.568Z,98400.22
2023-05-10T12:44:19.986Z,98399.00
2023-05-10T12:47:05.362Z,98403.00
2023-05-10T12:49:50.873Z,98409.31
2023-05-10T12:52:36.456Z,98401.78
2023-05-10T12:55:21.826Z,98406.53
2023-05-10T12:58:07.138Z,98412.09
2023-05-10T13:00:53.444Z,98418.47
2023-05-10T13:03:38.869Z,98415.22
2023-05-10T13:06:24.318Z,98424.78
2023-05-10T13:09:09.659Z,98430.69
2023-05-10T13:11:55.282Z,98429.91
2023-05-10T13:14:41.678Z,98426.31
2023-05-10T13:17:27.063Z,98423.13
2023-05-10T13:20:12.597Z,98418.34
2023-05-10T13:22:57.871Z,98418.34
2023-05-10T13:25:43.270Z,98427.44
2023-05-10T13:28:28.662Z,98422.69
2023-05-10T13:31:13.941Z,98424.22
2023-05-10T13:33:59.208Z,98417.13
2023-05-10T13:36:44.418Z,98420.69
2023-05-10T13:39:34.249Z,98418.22
2023-05-10T13:42:19.790Z,98417.47
2023-05-10T13:45:05.697Z,98420.59
2023-05-10T13:47:51.104Z,98422.47
2023-05-10T13:50:36.884Z,98410.09
2023-05-10T13:53:22.198Z,98415.56
2023-05-10T13:56:07.555Z,98413.81
2023-05-10T13:58:53.563Z,98415.72
2023-05-10T14:01:39.195Z,98419.59
2023-05-10T14:04:24.514Z,98424.28
2023-05-10T14:07:09.649Z,98415.47
2023-05-10T14:09:56.074Z,98418.94
2023-05-10T14:12:41.457Z,98415.03
2023-05-10T14:15:26.968Z,98415.81
2023-05-10T14:18:13.015Z,98419.69
2023-05-10T14:20:58.984Z,98416.47
2023-05-10T14:23:46.149Z,98417.59
2023-05-10T14:26:32.507Z,98425.81
2023-05-10T14:29:18.489Z,98414.25
2023-05-10T14:32:04.387Z,98422.13
2023-05-10T14:34:49.576Z,98420.13
2023-05-10T14:37:35.344Z,98420.78
2023-05-10T14:40:22.164Z,98419.13
2023-05-10T14:43:07.807Z,98418.34
2023-05-10T14:45:53.650Z,98411.13
2023-05-10T14:48:39.508Z,98411.44
2023-05-10T14:51:25.446Z,98423.69
2023-05-10T14:54:10.893Z,98421.22
2023-05-10T14:56:56.508Z,98415.66
2023-05-10T14:59:42.282Z,98424.34
2023-05-10T15:02:28.109Z,98416.34
2023-05-10T15:05:14.500Z,98417.88
2023-05-10T15:08:00.689Z,98423.31
2023-05-10T15:10:46.267Z,98418.53
2023-05-10T15:13:31.856Z,98425.19
2023-05-10T15:16:17.370Z,98419.19
2023-05-10T15:19:03.840Z,98415.97
2023-05-10T15:21:49.586Z,98422.66
2023-05-10T15:24:38.060Z,98421.41
2023-05-10T15:27:24.037Z,98426.09
2023-05-10T15:30:10.452Z,98423.31
2023-05-10T15:32:57.226Z,98426.75
2023-05-10T15:35:42.501Z,98430.75
2023-05-10T15:38:27.791Z,98428.28
2023-05-10T15:41:13.012Z,98429.88
2023-05-10T15:44:00.696Z,98431.75
2023-05-10T15:46:46.341Z,98432.06
2023-05-10T15:49:31.781Z,98427.28
2023-05-10T15:52:17.041Z,98435.94
2023-05-10T15:55:02.231Z,98433.94
2023-05-10T15:57:48.848Z,98434.41
2023-05-10T16:00:34.819Z,98437.50
2023-05-10T16:03:20.398Z,98441.06
2023-05-10T16:06:05.733Z,98439.06
2023-05-10T16:08:51.979Z,98445.41
2023-05-10T16:11:38.915Z,98438.28
2023-05-10T16:14:24.873Z,98444.22
2023-05-10T16:17:10.661Z,98441.75
2023-05-10T16:19:56.348Z,98448.44
2023-05-10T16:22:41.755Z,98451.53
2023-05-10T16:25:26.926Z,98454.63
2023-05-10T16:28:12.212Z,98446.63
2023-05-10T16:30:57.455Z,98452.97
2023-05-10T16:33:42.762Z,98454.97
2023-05-10T16:36:29.427Z,98454.53
2023-05-10T16:39:15.033Z,98458.41
2023-05-10T16:42:01.162Z,98457.31
2023-05-10T16:44:46.617Z,98465.66
2023-05-10T16:47:31.908Z,98465.22
2023-05-10T16:50:17.157Z,98464.44
2023-05-10T16:53:02.433Z,98471.22
2023-05-10T16:55:48.183Z,98474.44
2023-05-10T16:58:34.140Z,98471.66
2023-05-10T17:01:20.058Z,98481.56
2023-05-10T17:04:05.668Z,98478.03
2023-05-10T17:06:51.527Z,98481.25
2023-05-10T17:09:36.832Z,98477.69
2023-05-10T17:12:22.201Z,98483.25
2023-05-10T17:15:08.366Z,98484.47
2023-05-10T17:17:53.743Z,98491.94
2023-05-10T17:20:39.494Z,98493.16
2023-05-10T17:23:25.219Z,98501.50
2023-05-10T17:26:10.836Z,98500.63
2023-05-10T17:28:56.542Z,98506.19
2023-05-10T17:31:42.098Z,98504.59
2023-05-10T17:34:28.239Z,98506.47
2023-05-10T17:37:13.874Z,98508.50
2023-05-10T17:40:03.567Z,98515.75
2023-05-10T17:42:49.186Z,98516.97
2023-05-10T17:45:35.068Z,98520.22
2023-05-10T17:48:20.775Z,98517.41
2023-05-10T17:51:06.658Z,98517.53
2023-05-10T17:53:52.734Z,98517.53
2023-05-10T17:56:38.313Z,98521.41
2023-05-10T17:59:23.702Z,98521.41
2023-05-10T18:02:09.606Z,98523.75
2023-05-10T18:05:01.775Z,98531.66
2023-05-10T18:07:47.242Z,98522.22
2023-05-10T18:10:35.271Z,98520.97
2023-05-10T18:13:22.702Z,98528.56
2023-05-10T18:16:12.536Z,98536.56
2023-05-10T18:18:58.272Z,98531.78
2023-05-10T18:21:43.545Z,98526.97
2023-05-10T18:24:38.430Z,98538.13
2023-05-10T18:27:26.695Z,98540.47
2023-05-10T18:30:14.496Z,98536.91
2023-05-10T18:33:02.421Z,98538.59
2023-05-10T18:35:48.361Z,98551.25
2023-05-10T18:38:40.423Z,98548.59
2023-05-10T18:41:28.405Z,98548.59
2023-05-10T18:44:14.582Z,98553.38
2023-05-10T18:47:00.342Z,98557.41
2023-05-10T18:49:46.244Z,98555.81
2023-05-10T18:52:31.711Z,98558.59
2023-05-10T18:55:17.534Z,98558.59
2023-05-10T18:58:03.224Z,98562.63
2023-05-10T19:00:48.788Z,98563.88
2023-05-10T19:03:35.823Z,98563.88
2023-05-10T19:06:21.390Z,98569.06
2023-05-10T19:09:06.646Z,98574.63
2023-05-10T19:11:52.088Z,98578.19
2023-05-10T19:14:37.669Z,98581.41
2023-05-10T19:17:23.090Z,98586.19
2023-05-10T19:20:09.666Z,98591.75
2023-05-10T19:23:09.182Z,98590.97
2023-05-10T19:25:55.881Z,98590.22
2023-05-10T19:28:41.260Z,98591.84
2023-05-10T19:31:26.663Z,98591.84
2023-05-10T19:34:12.122Z,98595.88
2023-05-10T19:36:57.464Z,98592.75
2023-05-10T19:39:42.659Z,98601.53
2023-05-10T19:42:27.987Z,98598.41
2023-05-10T19:45:15.594Z,98591.75
2023-05-10T19:48:01.445Z,98594.66
2023-05-10T19:50:47.135Z,98592.31
2023-05-10T19:53:32.592Z,98591.53
2023-05-10T19:56:18.447Z,98595.19
2023-05-10T19:59:04.065Z,98598.44
2023-05-10T20:01:49.496Z,98595.31
2023-05-10T20:04:34.915Z,98599.78
2023-05-10T20:07:20.071Z,98602.22
2023-05-10T20:10:05.706Z,98608.22
2023-05-10T20:12:52.231Z,98605.09
2023-05-10T20:15:38.022Z,98610.31
2023-05-10T20:18:23.960Z,98607.19
2023-05-10T20:21:09.167Z,98606.44
2023-05-10T20:23:54.578Z,98610.88
2023-05-10T20:26:40.802Z,98613.31
2023-05-10T20:29:26.446Z,98609.75
2023-05-10T20:32:12.100Z,98612.97
2023-05-10T20:34:57.347Z,98609.84
2023-05-10T20:37:42.490Z,98608.31
2023-05-10T20:40:28.117Z,98610.75
2023-05-10T20:43:13.692Z,98611.63
2023-05-10T20:46:05.198Z,98606.84
2023-05-10T20:48:50.913Z,98613.28
2023-05-10T20:51:36.095Z,98614.94
2023-05-10T20:54:23.064Z,98618.97
2023-05-10T20:57:08.534Z,98625.38
2023-05-10T20:59:54.650Z,98619.81
2023-05-10T21:02:45.526Z,98619.47
2023-05-10T21:05:31.269Z,98618.38
2023-05-10T21:08:16.347Z,98614.81
2023-05-10T21:11:05.684Z,98616.47
2023-05-10T21:13:51.355Z,98614.13
2023-05-10T21:16:36.824Z,98614.59
2023-05-10T21:19:22.383Z,98617.81
2023-05-10T21:22:07.915Z,98610.66
2023-05-10T21:24:53.491Z,98618.66
2023-05-10T21:27:39.190Z,98619.09
2023-05-10T21:30:24.996Z,98623.53
2023-05-10T21:33:10.627Z,98623.97
2023-05-10T21:35:56.797Z,98621.63
2023-05-10T21:38:44.436Z,98628.41
2023-05-10T21:41:29.761Z,98622.50
2023-05-10T21:44:15.013Z,98628.84
2023-05-10T21:47:00.164Z,98625.28
2023-05-10T21:49:45.357Z,98624.50
2023-05-10T21:52:30.737Z,98626.84
2023-05-10T21:55:16.721Z,98626.06
2023-05-10T21:58:02.197Z,98629.59
2023-05-10T22:00:47.490Z,98630.84
2023-05-10T22:03:32.842Z,98630.84
2023-05-10T22:06:18.115Z,98630.84
2023-05-10T22:09:05.093Z,98628.50
2023-05-10T22:11:50.207Z,98625.28
2023-05-10T22:14:35.638Z,98631.63
2023-05-10T22:17:21.109Z,98632.03
2023-05-10T22:20:09.716Z,98633.63
2023-05-10T22:22:56.030Z,98630.84
2023-05-10T22:25:41.580Z,98633.63
2023-05-10T22:28:26.911Z,98632.38
2023-05-10T22:31:12.780Z,98637.94
2023-05-10T22:33:58.207Z,98633.97
2023-05-10T22:36:44.597Z,98632.38
2023-05-10T22:39:30.062Z,98634.75
2023-05-10T22:42:15.723Z,98622.84
2023-05-10T22:45:01.098Z,98638.75
2023-05-10T22:47:47.329Z,98634.41
2023-05-10T22:50:32.535Z,98635.63
2023-05-10T22:53:17.884Z,98631.63
2023-05-10T22:56:03.291Z,98637.94
2023-05-10T22:58:49.447Z,98636.41
2023-05-10T23:01:34.931Z,98635.63
2023-05-10T23:04:20.248Z,98635.16
2023-05-10T23:07:06.003Z,98637.59
2023-05-10T23:09:51.462Z,98633.28
2023-05-10T23:12:37.155Z,98627.72
2023-05-10T23:15:22.489Z,98636.06
2023-05-10T23:18:08.395Z,98634.06
2023-05-10T23:20:54.109Z,98633.72
2023-05-10T23:23:39.393Z,98637.28
2023-05-10T23:26:24.685Z,98632.59
2023-05-10T23:29:09.959Z,98625.84
2023-05-10T23:31:55.498Z,98634.16
2023-05-10T23:34:40.990Z,98628.59
2023-05-10T23:37:26.397Z,98637.38
2023-05-10T23:40:12.024Z,98629.03
2023-05-10T23:42:57.516Z,98631.03
2023-05-10T23:45:42.745Z,98636.59
2023-05-10T23:48:28.166Z,98631.03
2023-05-10T23:51:13.335Z,98625.50
2023-05-10T23:53:59.182Z,98627.91
2023-05-10T23:56:44.423Z,98620.00
2023-05-10T23:59:29.816Z,98626.69
